Time;durP1;ratioP1;P1;durP2;ratioP2;P2;SDS_P1;SDS_P2;PMS_P1;PMS_P2;Temp;Humidity;BMP_temperature;BMP_pressure;BME280_temperature;BME280_humidity;BME280_pressure;Samples;Min_cycle;Max_cycle;Signal;HPM_P1;HPM_P2
2023/01/06 00:01:07;;;;;;;12.05;1.05;;;;;;;;;;5033577;28;20394;-64
2023/01/06 00:03:34;;;;;;;10.85;2.45;;;;;;;;;;5033916;28;20029;-64
2023/01/06 00:06:00;;;;;;;7.50;1.45;;;;;;;;;;5033735;28;20041;-64
2023/01/06 00:08:27;;;;;;;7.35;1.25;;;;;;;;;;5033809;28;20386;-64
2023/01/06 00:10:53;;;;;;;10.25;1.70;;;;;;;;;;5033969;28;20036;-64
2023/01/06 00:13:20;;;;;;;8.05;1.45;;;;;;;;;;5033866;28;20022;-64
2023/01/06 00:15:46;;;;;;;8.35;1.60;;;;;;;;;;5033232;28;20022;-64
2023/01/06 00:18:12;;;;;;;6.43;1.52;;;;;;;;;;5033528;28;20106;-64
2023/01/06 00:20:38;;;;;;;7.65;1.67;;;;;;;;;;5033552;28;20029;-64
2023/01/06 00:23:04;;;;;;;8.23;1.55;;;;;;;;;;5033544;28;20025;-64
2023/01/06 00:25:30;;;;;;;9.23;1.48;;;;;;;;;;5032484;28;20033;-64
2023/01/06 00:27:56;;;;;;;11.30;1.90;;;;;;;;;;5032213;28;20037;-64
2023/01/06 00:30:22;;;;;;;4.05;1.40;;;;;;;;;;5032787;28;20026;-64
2023/01/06 00:32:50;;;;;;;9.73;1.35;;;;;;;;;;5033547;28;20470;-64
2023/01/06 00:35:16;;;;;;;11.90;1.98;;;;;;;;;;5032936;28;20050;-64
2023/01/06 00:37:42;;;;;;;4.00;1.27;;;;;;;;;;5033291;28;20113;-64
2023/01/06 00:40:08;;;;;;;11.25;1.55;;;;;;;;;;5033256;28;20037;-64
2023/01/06 00:42:37;;;;;;;8.13;1.40;;;;;;;;;;5033298;28;20040;-64
2023/01/06 00:45:03;;;;;;;9.95;1.52;;;;;;;;;;5031014;28;20025;-64
2023/01/06 00:47:29;;;;;;;7.82;1.65;;;;;;;;;;5033219;28;20029;-64
2023/01/06 00:49:55;;;;;;;7.30;1.60;;;;;;;;;;5033147;28;20049;-64
2023/01/06 00:52:21;;;;;;;11.43;1.60;;;;;;;;;;5032784;28;20036;-64
2023/01/06 00:54:48;;;;;;;11.85;1.67;;;;;;;;;;5033262;28;20113;-64
2023/01/06 00:57:14;;;;;;;10.02;1.70;;;;;;;;;;5032848;28;20120;-64
2023/01/06 00:59:40;;;;;;;5.30;1.65;;;;;;;;;;5032823;28;20508;-64
2023/01/06 01:02:06;;;;;;;13.02;2.45;;;;;;;;;;5031646;28;20033;-64
2023/01/06 01:04:32;;;;;;;10.55;1.38;;;;;;;;;;5033057;28;20060;-64
2023/01/06 01:06:59;;;;;;;8.50;1.52;;;;;;;;;;5032590;28;20036;-64
2023/01/06 01:09:30;;;;;;;10.40;1.65;;;;;;;;;;5031530;28;20018;-64
2023/01/06 01:12:08;;;;;;;6.85;1.20;;;;;;;;;;5032970;28;20029;-64
2023/01/06 01:14:35;;;;;;;13.50;2.47;;;;;;;;;;5031297;28;20044;-64
2023/01/06 01:17:01;;;;;;;8.88;2.10;;;;;;;;;;5031402;28;20030;-64
2023/01/06 01:19:28;;;;;;;6.45;1.45;;;;;;;;;;5032883;28;20387;-64
2023/01/06 01:21:55;;;;;;;8.77;1.40;;;;;;;;;;5032828;28;20358;-64
2023/01/06 01:24:21;;;;;;;7.72;1.75;;;;;;;;;;5032377;28;20471;-64
2023/01/06 01:26:48;;;;;;;5.60;1.40;;;;;;;;;;5032783;28;20022;-64
2023/01/06 01:29:15;;;;;;;4.88;1.30;;;;;;;;;;5032093;28;20033;-64
2023/01/06 01:31:42;;;;;;;7.65;1.80;;;;;;;;;;5032689;28;20029;-64
2023/01/06 01:34:09;;;;;;;7.68;1.23;;;;;;;;;;5032353;28;20033;-64
2023/01/06 01:36:35;;;;;;;9.32;1.40;;;;;;;;;;5032611;28;20025;-64
2023/01/06 01:39:01;;;;;;;10.45;1.75;;;;;;;;;;5031066;28;20061;-64
2023/01/06 01:41:28;;;;;;;7.43;1.38;;;;;;;;;;5031244;28;20460;-64
2023/01/06 01:43:59;;;;;;;6.15;1.17;;;;;;;;;;5032225;28;20033;-64
2023/01/06 01:46:28;;;;;;;6.18;1.00;;;;;;;;;;5032420;28;20038;-64
2023/01/06 01:48:56;;;;;;;4.03;1.30;;;;;;;;;;5032403;28;20030;-63
2023/01/06 01:51:24;;;;;;;5.32;1.02;;;;;;;;;;5030964;28;20027;-64
2023/01/06 01:53:52;;;;;;;6.35;1.13;;;;;;;;;;5031270;28;20071;-64
2023/01/06 01:56:21;;;;;;;6.30;1.60;;;;;;;;;;5033416;28;20030;-64
2023/01/06 01:58:50;;;;;;;8.00;2.17;;;;;;;;;;5036263;28;20112;-64
2023/01/06 02:01:16;;;;;;;9.98;2.38;;;;;;;;;;5036287;28;20029;-64
2023/01/06 02:03:42;;;;;;;9.48;1.50;;;;;;;;;;5036103;28;20044;-64
2023/01/06 02:06:12;;;;;;;8.25;1.23;;;;;;;;;;5034793;28;20076;-64
2023/01/06 02:08:44;;;;;;;11.80;1.13;;;;;;;;;;5034599;28;20448;-64
2023/01/06 02:11:10;;;;;;;7.77;1.07;;;;;;;;;;5034529;28;20062;-64
2023/01/06 02:13:38;;;;;;;13.07;1.45;;;;;;;;;;5035858;28;20497;-64
2023/01/06 02:16:19;;;;;;;7.18;1.25;;;;;;;;;;5034780;28;20385;-64
2023/01/06 02:19:01;;;;;;;9.00;1.20;;;;;;;;;;5036026;28;20401;-64
2023/01/06 02:21:40;;;;;;;6.28;0.75;;;;;;;;;;5034537;28;20037;-64
2023/01/06 02:24:23;;;;;;;4.10;1.08;;;;;;;;;;5035901;28;20143;-64
2023/01/06 02:26:49;;;;;;;;;;;;;;;;;;5034485;28;20045;-64
2023/01/06 02:29:34;;;;;;;6.72;1.23;;;;;;;;;;5034376;28;19988;-64
2023/01/06 02:32:01;;;;;;;3.97;0.90;;;;;;;;;;5033364;28;20071;-64
2023/01/06 02:34:27;;;;;;;6.43;0.70;;;;;;;;;;5033962;28;20046;-64
2023/01/06 02:37:12;;;;;;;2.13;0.80;;;;;;;;;;5035575;28;20040;-64
2023/01/06 02:39:54;;;;;;;2.40;0.52;;;;;;;;;;5035533;28;20064;-64
2023/01/06 02:42:20;;;;;;;1.88;0.65;;;;;;;;;;5033963;28;20072;-64
2023/01/06 02:44:49;;;;;;;1.98;0.60;;;;;;;;;;5034057;28;20033;-64
2023/01/06 02:47:16;;;;;;;3.28;0.68;;;;;;;;;;5034066;28;20069;-64
2023/01/06 02:50:03;;;;;;;2.10;0.60;;;;;;;;;;5034108;28;20080;-64
2023/01/06 02:52:37;;;;;;;3.95;0.90;;;;;;;;;;5035123;28;20053;-64
2023/01/06 02:55:07;;;;;;;3.28;0.60;;;;;;;;;;5033804;28;20121;-64
2023/01/06 02:57:45;;;;;;;6.70;1.77;;;;;;;;;;5033954;28;20041;-64
2023/01/06 03:00:31;;;;;;;2.78;0.80;;;;;;;;;;5033997;28;20124;-64
2023/01/06 03:02:59;;;;;;;6.55;0.80;;;;;;;;;;5035223;28;20034;-64
2023/01/06 03:05:26;;;;;;;6.82;1.67;;;;;;;;;;5033541;28;20030;-64
2023/01/06 03:07:53;;;;;;;6.47;1.10;;;;;;;;;;5033626;28;20037;-64
2023/01/06 03:10:20;;;;;;;4.05;1.05;;;;;;;;;;5034513;28;20203;-64
2023/01/06 03:12:50;;;;;;;12.20;1.70;;;;;;;;;;5033595;28;20038;-64
2023/01/06 03:15:17;;;;;;;7.13;1.10;;;;;;;;;;5033507;28;20512;-64
2023/01/06 03:17:44;;;;;;;11.07;1.35;;;;;;;;;;5034742;28;20076;-64
2023/01/06 03:20:11;;;;;;;8.55;1.17;;;;;;;;;;5033617;28;20116;-64
2023/01/06 03:22:38;;;;;;;5.22;0.93;;;;;;;;;;5033425;28;20033;-64
2023/01/06 03:25:05;;;;;;;16.92;1.52;;;;;;;;;;5033091;28;20030;-64
2023/01/06 03:27:33;;;;;;;9.95;1.38;;;;;;;;;;5033029;28;20029;-64
2023/01/06 03:30:00;;;;;;;11.82;1.55;;;;;;;;;;5033218;28;20030;-64
2023/01/06 03:32:37;;;;;;;10.65;1.40;;;;;;;;;;5033165;28;20394;-64
2023/01/06 03:35:27;;;;;;;6.63;1.30;;;;;;;;;;5033084;28;20049;-64
2023/01/06 03:37:58;;;;;;;8.20;1.10;;;;;;;;;;5015239;28;20153;-64
2023/01/06 03:40:24;;;;;;;5.68;1.65;;;;;;;;;;5015357;28;20048;-64
2023/01/06 03:43:11;;;;;;;8.70;1.77;;;;;;;;;;5015737;28;20034;-64
2023/01/06 03:45:50;;;;;;;8.48;1.38;;;;;;;;;;5015389;28;20033;-64
2023/01/06 03:48:29;;;;;;;2.25;0.65;;;;;;;;;;5015601;28;20103;-64
2023/01/06 03:51:01;;;;;;;6.63;0.63;;;;;;;;;;5015400;28;20033;-64
2023/01/06 03:53:50;;;;;;;4.80;0.70;;;;;;;;;;5015026;28;20030;-64
2023/01/06 03:56:16;;;;;;;8.75;0.90;;;;;;;;;;5015247;28;20045;-64
2023/01/06 03:58:44;;;;;;;8.02;1.33;;;;;;;;;;5015108;28;20025;-65
2023/01/06 04:01:10;;;;;;;9.48;1.52;;;;;;;;;;5031978;28;20043;-65
2023/01/06 04:03:37;;;;;;;3.63;1.30;;;;;;;;;;5014766;28;20422;-64
2023/01/06 04:06:03;;;;;;;10.27;1.35;;;;;;;;;;5031605;28;20034;-64
2023/01/06 04:08:29;;;;;;;13.32;1.70;;;;;;;;;;5014640;28;20041;-64
2023/01/06 04:10:57;;;;;;;10.45;1.63;;;;;;;;;;5015204;28;20026;-64
2023/01/06 04:13:23;;;;;;;9.52;1.85;;;;;;;;;;5017945;28;20040;-65
2023/01/06 04:15:49;;;;;;;10.93;1.63;;;;;;;;;;5032929;28;20040;-65
2023/01/06 04:18:15;;;;;;;11.02;1.98;;;;;;;;;;5031244;28;20039;-65
2023/01/06 04:20:42;;;;;;;11.43;2.10;;;;;;;;;;5031668;28;20037;-65
2023/01/06 04:23:16;;;;;;;13.15;1.73;;;;;;;;;;5041830;28;20029;-65
2023/01/06 04:25:43;;;;;;;6.00;1.77;;;;;;;;;;5043303;28;20037;-65
2023/01/06 04:28:13;;;;;;;7.40;1.15;;;;;;;;;;5021067;28;20034;-65
2023/01/06 04:30:39;;;;;;;12.73;1.50;;;;;;;;;;5012479;28;20112;-65
2023/01/06 04:33:06;;;;;;;14.35;3.17;;;;;;;;;;5017510;28;20044;-65
2023/01/06 04:35:32;;;;;;;14.90;2.08;;;;;;;;;;5024036;28;20077;-64
2023/01/06 04:38:01;;;;;;;11.38;1.50;;;;;;;;;;5021620;28;20436;-65
2023/01/06 04:40:27;;;;;;;13.25;1.50;;;;;;;;;;5033019;28;20087;-64
2023/01/06 04:43:05;;;;;;;13.70;1.50;;;;;;;;;;5033498;28;20021;-64
2023/01/06 04:45:32;;;;;;;8.82;1.40;;;;;;;;;;5031711;28;20029;-64
2023/01/06 04:47:58;;;;;;;14.32;2.05;;;;;;;;;;5032701;28;20537;-65
2023/01/06 04:50:24;;;;;;;11.40;1.83;;;;;;;;;;5032760;28;20034;-65
2023/01/06 04:52:50;;;;;;;12.77;2.95;;;;;;;;;;5032892;28;20025;-65
2023/01/06 04:55:16;;;;;;;7.85;2.25;;;;;;;;;;5032367;28;20477;-65
2023/01/06 04:57:42;;;;;;;11.13;1.25;;;;;;;;;;5032864;28;20053;-65
2023/01/06 05:00:09;;;;;;;12.95;1.77;;;;;;;;;;5033013;28;20020;-64
2023/01/06 05:02:35;;;;;;;12.07;1.85;;;;;;;;;;5027796;28;20104;-64
2023/01/06 05:05:01;;;;;;;9.18;1.73;;;;;;;;;;5028934;28;20064;-65
2023/01/06 05:07:27;;;;;;;11.75;1.80;;;;;;;;;;5028986;28;20498;-64
2023/01/06 05:09:53;;;;;;;12.60;2.58;;;;;;;;;;5031383;28;20025;-64
2023/01/06 05:12:19;;;;;;;7.43;1.70;;;;;;;;;;5031418;28;20513;-64
2023/01/06 05:14:45;;;;;;;10.15;1.55;;;;;;;;;;5031412;28;20485;-64
2023/01/06 05:17:11;;;;;;;8.55;1.58;;;;;;;;;;5031614;28;20022;-64
2023/01/06 05:19:38;;;;;;;7.47;1.92;;;;;;;;;;5032031;28;20026;-64
2023/01/06 05:22:04;;;;;;;10.80;2.03;;;;;;;;;;5031805;28;20057;-64
2023/01/06 05:24:30;;;;;;;11.45;1.17;;;;;;;;;;5031486;28;20040;-64
2023/01/06 05:26:56;;;;;;;4.65;1.20;;;;;;;;;;5031013;28;20413;-64
2023/01/06 05:29:22;;;;;;;7.30;1.20;;;;;;;;;;5032259;28;20028;-64
2023/01/06 05:31:48;;;;;;;7.70;0.95;;;;;;;;;;5033096;28;20433;-64
2023/01/06 05:34:14;;;;;;;4.28;1.13;;;;;;;;;;5035860;28;20125;-64
2023/01/06 05:36:40;;;;;;;4.32;1.00;;;;;;;;;;5036512;28;20029;-64
2023/01/06 05:39:06;;;;;;;6.30;1.10;;;;;;;;;;5035840;28;20029;-64
2023/01/06 05:41:32;;;;;;;5.40;1.10;;;;;;;;;;5036668;28;20561;-64
2023/01/06 05:43:58;;;;;;;3.92;1.13;;;;;;;;;;5036426;28;20065;-64
2023/01/06 05:46:25;;;;;;;5.45;1.30;;;;;;;;;;5036558;28;20033;-64
2023/01/06 05:48:51;;;;;;;5.32;1.60;;;;;;;;;;5035984;28;20037;-64
2023/01/06 05:51:17;;;;;;;5.57;1.40;;;;;;;;;;5036436;28;20071;-64
2023/01/06 05:53:44;;;;;;;4.50;0.90;;;;;;;;;;5035681;28;20091;-64
2023/01/06 05:56:12;;;;;;;4.57;0.80;;;;;;;;;;5036331;28;20060;-64
2023/01/06 05:58:42;;;;;;;6.28;1.00;;;;;;;;;;5035250;28;20558;-64
2023/01/06 06:01:14;;;;;;;1.63;0.60;;;;;;;;;;5033212;28;20486;-64
2023/01/06 06:03:40;;;;;;;1.17;0.70;;;;;;;;;;5031964;28;20041;-64
2023/01/06 06:06:06;;;;;;;3.42;0.60;;;;;;;;;;5031935;28;20043;-64
2023/01/06 06:08:33;;;;;;;3.67;0.60;;;;;;;;;;5035354;28;20026;-64
2023/01/06 06:11:02;;;;;;;2.75;0.60;;;;;;;;;;5034776;28;20033;-64
2023/01/06 06:13:29;;;;;;;7.07;0.85;;;;;;;;;;5033933;28;20071;-64
2023/01/06 06:16:08;;;;;;;4.88;1.10;;;;;;;;;;5035231;28;20021;-64
2023/01/06 06:18:39;;;;;;;4.40;0.93;;;;;;;;;;5034335;28;20347;-64
2023/01/06 06:21:05;;;;;;;5.43;1.23;;;;;;;;;;5035978;28;20029;-64
2023/01/06 06:23:31;;;;;;;8.50;1.35;;;;;;;;;;5035969;28;20014;-64
2023/01/06 06:25:57;;;;;;;12.23;1.42;;;;;;;;;;5033603;28;20037;-64
2023/01/06 06:28:24;;;;;;;8.80;1.92;;;;;;;;;;5034621;28;20033;-64
2023/01/06 06:30:50;;;;;;;10.23;1.55;;;;;;;;;;5030492;28;20033;-64
2023/01/06 06:33:16;;;;;;;13.05;2.03;;;;;;;;;;5034912;28;20025;-64
2023/01/06 06:35:42;;;;;;;13.35;2.88;;;;;;;;;;5034262;28;20048;-64
2023/01/06 06:38:08;;;;;;;10.65;1.42;;;;;;;;;;5031571;28;20140;-64
2023/01/06 06:40:34;;;;;;;7.15;1.70;;;;;;;;;;5042371;28;20021;-64
2023/01/06 06:43:00;;;;;;;6.97;1.38;;;;;;;;;;5042248;28;20121;-64
2023/01/06 06:45:26;;;;;;;7.47;1.63;;;;;;;;;;5042741;28;20021;-64
2023/01/06 06:47:55;;;;;;;7.47;1.70;;;;;;;;;;5043793;28;20030;-64
2023/01/06 06:50:21;;;;;;;4.82;1.90;;;;;;;;;;5044260;28;20032;-64
2023/01/06 06:52:47;;;;;;;10.75;1.85;;;;;;;;;;5037666;28;20017;-64
2023/01/06 06:55:14;;;;;;;9.95;1.65;;;;;;;;;;5052683;28;20020;-64
2023/01/06 06:57:40;;;;;;;9.07;1.67;;;;;;;;;;5053316;28;20025;-64
2023/01/06 07:00:06;;;;;;;9.48;1.42;;;;;;;;;;5052851;28;20059;-64
2023/01/06 07:02:32;;;;;;;4.13;1.08;;;;;;;;;;5052926;28;20048;-64
2023/01/06 07:04:58;;;;;;;5.68;1.20;;;;;;;;;;5052922;28;20116;-64
2023/01/06 07:07:24;;;;;;;13.05;2.65;;;;;;;;;;5050915;28;20431;-65
2023/01/06 07:09:50;;;;;;;6.80;2.00;;;;;;;;;;5048333;28;20505;-66
2023/01/06 07:12:17;;;;;;;9.38;1.42;;;;;;;;;;5043842;28;20020;-64
2023/01/06 07:14:43;;;;;;;5.85;1.38;;;;;;;;;;5044840;28;20059;-65
2023/01/06 07:17:09;;;;;;;7.35;1.00;;;;;;;;;;5048222;28;20056;-64
2023/01/06 07:19:35;;;;;;;10.93;1.30;;;;;;;;;;5054158;28;20057;-64
2023/01/06 07:22:01;;;;;;;4.15;1.35;;;;;;;;;;5053524;28;20025;-64
2023/01/06 07:24:27;;;;;;;7.97;1.35;;;;;;;;;;5054257;28;20112;-64
2023/01/06 07:26:53;;;;;;;8.98;1.77;;;;;;;;;;5053825;28;20020;-64
2023/01/06 07:29:19;;;;;;;6.05;1.10;;;;;;;;;;5052666;28;20064;-64
2023/01/06 07:31:45;;;;;;;9.52;1.42;;;;;;;;;;5043448;28;20033;-64
2023/01/06 07:34:12;;;;;;;5.50;1.10;;;;;;;;;;5042155;28;20037;-64
2023/01/06 07:36:38;;;;;;;8.48;1.45;;;;;;;;;;5044420;28;20025;-64
2023/01/06 07:39:04;;;;;;;3.53;1.23;;;;;;;;;;5041490;28;20059;-64
2023/01/06 07:41:31;;;;;;;12.48;1.35;;;;;;;;;;5044937;28;20025;-64
2023/01/06 07:43:59;;;;;;;5.65;1.63;;;;;;;;;;5035892;28;20056;-64
2023/01/06 07:46:25;;;;;;;7.10;1.65;;;;;;;;;;5029813;28;20100;-64
2023/01/06 07:48:51;;;;;;;6.07;1.75;;;;;;;;;;5033663;28;20425;-64
2023/01/06 07:51:17;;;;;;;5.28;1.08;;;;;;;;;;5041762;28;20021;-64
2023/01/06 07:53:43;;;;;;;6.88;1.10;;;;;;;;;;5042792;28;20052;-64
2023/01/06 07:56:09;;;;;;;5.32;1.30;;;;;;;;;;5036924;28;20037;-64
2023/01/06 07:58:36;;;;;;;6.57;1.20;;;;;;;;;;5036301;28;20377;-64
2023/01/06 08:01:06;;;;;;;8.27;2.00;;;;;;;;;;5033632;28;20029;-64
2023/01/06 08:03:32;;;;;;;10.45;2.83;;;;;;;;;;5034210;28;20033;-64
2023/01/06 08:05:58;;;;;;;10.80;2.83;;;;;;;;;;5026083;28;20034;-64
2023/01/06 08:08:24;;;;;;;9.65;3.65;;;;;;;;;;5031844;28;20033;-64
2023/01/06 08:10:50;;;;;;;10.95;3.65;;;;;;;;;;5032855;28;20033;-64
2023/01/06 08:13:16;;;;;;;7.32;1.80;;;;;;;;;;5032005;28;20044;-64
2023/01/06 08:15:42;;;;;;;4.82;2.08;;;;;;;;;;5031044;28;20099;-64
2023/01/06 08:18:09;;;;;;;5.05;1.85;;;;;;;;;;5031999;28;20037;-64
2023/01/06 08:20:35;;;;;;;3.40;1.00;;;;;;;;;;5031934;28;20033;-64
2023/01/06 08:23:01;;;;;;;7.70;1.45;;;;;;;;;;5032281;28;20025;-64
2023/01/06 08:25:27;;;;;;;4.05;1.23;;;;;;;;;;5032062;28;20531;-64
2023/01/06 08:27:53;;;;;;;6.47;1.10;;;;;;;;;;5032287;28;20029;-64
2023/01/06 08:30:20;;;;;;;6.07;1.48;;;;;;;;;;5032006;28;20053;-64
2023/01/06 08:32:47;;;;;;;2.13;0.68;;;;;;;;;;5032562;28;20026;-64
2023/01/06 08:35:13;;;;;;;3.40;1.00;;;;;;;;;;5031553;28;20065;-64
2023/01/06 08:37:39;;;;;;;6.38;1.33;;;;;;;;;;5032259;28;20037;-64
2023/01/06 08:40:05;;;;;;;4.28;1.02;;;;;;;;;;5032423;28;20076;-64
2023/01/06 08:42:32;;;;;;;3.38;0.82;;;;;;;;;;5031984;28;20034;-64
2023/01/06 08:44:58;;;;;;;5.68;1.17;;;;;;;;;;5032506;28;20026;-64
2023/01/06 08:47:24;;;;;;;4.75;1.15;;;;;;;;;;5032273;28;20091;-64
2023/01/06 08:49:50;;;;;;;7.95;1.27;;;;;;;;;;5032361;28;20025;-64
2023/01/06 08:52:16;;;;;;;3.55;0.90;;;;;;;;;;5032653;28;20033;-64
2023/01/06 08:54:42;;;;;;;3.28;1.40;;;;;;;;;;5032534;28;20526;-64
2023/01/06 08:57:09;;;;;;;4.00;0.90;;;;;;;;;;5032067;28;20057;-64
2023/01/06 08:59:36;;;;;;;6.30;1.27;;;;;;;;;;5032205;28;20021;-64
2023/01/06 09:02:02;;;;;;;2.35;0.95;;;;;;;;;;5032422;28;20030;-64
2023/01/06 09:04:28;;;;;;;5.60;2.03;;;;;;;;;;5031914;28;20105;-64
2023/01/06 09:06:55;;;;;;;5.50;1.08;;;;;;;;;;5031731;28;20542;-64
2023/01/06 09:09:21;;;;;;;5.88;1.20;;;;;;;;;;5029459;28;20055;-64
2023/01/06 09:11:47;;;;;;;3.55;1.30;;;;;;;;;;5031222;28;20025;-64
2023/01/06 09:14:14;;;;;;;9.02;1.50;;;;;;;;;;5031521;28;20025;-64
2023/01/06 09:16:40;;;;;;;6.13;1.20;;;;;;;;;;5031896;28;20063;-64
2023/01/06 09:19:09;;;;;;;5.60;1.05;;;;;;;;;;5032133;28;20169;-64
2023/01/06 09:21:35;;;;;;;4.72;0.98;;;;;;;;;;5031579;28;20478;-64
2023/01/06 09:24:01;;;;;;;9.00;1.27;;;;;;;;;;5032291;28;20030;-64
2023/01/06 09:26:27;;;;;;;8.35;1.17;;;;;;;;;;5030908;28;20087;-64
2023/01/06 09:28:54;;;;;;;6.90;1.30;;;;;;;;;;5031353;28;20037;-64
2023/01/06 09:31:20;;;;;;;3.78;1.08;;;;;;;;;;5031488;28;20045;-64
2023/01/06 09:33:46;;;;;;;8.05;1.17;;;;;;;;;;5031146;28;20017;-64
2023/01/06 09:36:12;;;;;;;5.30;1.10;;;;;;;;;;5031396;28;20512;-64
2023/01/06 09:38:38;;;;;;;7.90;1.50;;;;;;;;;;5032270;28;20069;-64
2023/01/06 09:41:04;;;;;;;8.02;1.13;;;;;;;;;;5031692;28;20420;-64
2023/01/06 09:43:49;;;;;;;4.18;1.20;;;;;;;;;;5031742;28;20037;-64
2023/01/06 09:46:16;;;;;;;9.15;1.23;;;;;;;;;;5032250;28;20116;-64
2023/01/06 09:48:49;;;;;;;5.70;1.20;;;;;;;;;;5032124;28;20037;-65
2023/01/06 09:51:19;;;;;;;8.45;1.20;;;;;;;;;;5032079;28;20029;-64
2023/01/06 09:53:48;;;;;;;9.07;1.98;;;;;;;;;;5031817;28;20030;-64
2023/01/06 09:56:16;;;;;;;4.43;1.60;;;;;;;;;;5029489;28;20025;-64
2023/01/06 09:58:45;;;;;;;4.95;1.35;;;;;;;;;;5031409;28;20049;-64
2023/01/06 10:01:15;;;;;;;7.13;1.40;;;;;;;;;;5031369;28;20358;-64
2023/01/06 10:03:42;;;;;;;8.68;1.58;;;;;;;;;;5029391;28;20029;-64
2023/01/06 10:06:11;;;;;;;11.82;1.85;;;;;;;;;;5031993;28;20033;-64
2023/01/06 10:08:49;;;;;;;3.95;1.38;;;;;;;;;;5022110;28;20052;-64
2023/01/06 10:11:18;;;;;;;5.78;1.52;;;;;;;;;;5031199;28;20068;-65
2023/01/06 10:13:44;;;;;;;6.30;1.20;;;;;;;;;;5031629;28;20029;-64
2023/01/06 10:16:28;;;;;;;6.53;1.83;;;;;;;;;;5030603;28;20025;-64
2023/01/06 10:19:12;;;;;;;5.88;1.20;;;;;;;;;;5035071;28;20485;-64
2023/01/06 10:21:38;;;;;;;3.08;0.88;;;;;;;;;;5033639;28;20029;-64
2023/01/06 10:24:15;;;;;;;8.05;1.23;;;;;;;;;;5035113;28;20525;-63
2023/01/06 10:26:41;;;;;;;3.20;0.75;;;;;;;;;;5033683;28;20078;-64
2023/01/06 10:29:16;;;;;;;8.57;0.82;;;;;;;;;;5035114;28;20025;-64
2023/01/06 10:31:43;;;;;;;4.90;0.98;;;;;;;;;;5033978;28;20026;-64
2023/01/06 10:34:26;;;;;;;5.78;1.60;;;;;;;;;;5034977;28;20513;-64
2023/01/06 10:36:52;;;;;;;;;;;;;;;;;;5034502;28;20033;-64
2023/01/06 10:39:20;;;;;;;6.82;1.20;;;;;;;;;;5034414;28;19934;-64
2023/01/06 10:42:54;;;;;;;6.68;1.20;;;;;;;;;;5034650;28;20140;-64
2023/01/06 10:44:40;;;;;;;4.95;0.80;;;;;;;;;;5033590;28;20448;-64
2023/01/06 10:47:08;;;;;;;6.60;1.67;;;;;;;;;;5032111;28;20021;-64
2023/01/06 10:49:34;;;;;;;2.95;1.40;;;;;;;;;;5034317;28;20031;-64
2023/01/06 10:52:02;;;;;;;5.32;1.08;;;;;;;;;;5033062;28;20059;-64
2023/01/06 10:54:32;;;;;;;3.38;0.85;;;;;;;;;;5031702;28;20022;-64
2023/01/06 10:57:09;;;;;;;5.72;2.20;;;;;;;;;;5034196;28;20024;-64
2023/01/06 10:59:55;;;;;;;3.90;1.08;;;;;;;;;;5032812;28;20018;-64
2023/01/06 11:02:22;;;;;;;2.88;0.70;;;;;;;;;;5032576;28;20025;-64
2023/01/06 11:04:51;;;;;;;3.72;0.93;;;;;;;;;;5032200;28;20385;-64
2023/01/06 11:07:17;;;;;;;3.10;1.00;;;;;;;;;;5034039;28;20026;-64
2023/01/06 11:09:44;;;;;;;4.50;1.20;;;;;;;;;;5034321;28;20036;-64
2023/01/06 11:12:10;;;;;;;6.28;1.50;;;;;;;;;;5033791;28;20116;-64
2023/01/06 11:14:36;;;;;;;5.15;1.05;;;;;;;;;;5033975;28;20075;-64
2023/01/06 11:17:03;;;;;;;2.58;0.85;;;;;;;;;;5033265;28;20021;-64
2023/01/06 11:19:34;;;;;;;4.20;1.05;;;;;;;;;;5033812;28;20029;-64
2023/01/06 11:22:00;;;;;;;3.03;1.13;;;;;;;;;;5031001;28;20473;-64
2023/01/06 11:24:27;;;;;;;5.30;1.13;;;;;;;;;;5033614;28;20409;-64
2023/01/06 11:26:58;;;;;;;2.53;0.80;;;;;;;;;;5033790;28;20064;-64
2023/01/06 11:29:36;;;;;;;5.55;1.63;;;;;;;;;;5032983;28;20033;-64
2023/01/06 11:32:04;;;;;;;3.58;1.52;;;;;;;;;;5033688;28;20021;-64
2023/01/06 11:34:30;;;;;;;2.05;0.70;;;;;;;;;;5033497;28;20107;-64
2023/01/06 11:36:57;;;;;;;3.30;1.00;;;;;;;;;;5026409;28;20042;-64
2023/01/06 11:39:25;;;;;;;1.63;0.98;;;;;;;;;;5026538;28;20057;-64
2023/01/06 11:41:53;;;;;;;5.22;1.13;;;;;;;;;;5014920;28;20041;-64
2023/01/06 11:44:36;;;;;;;6.15;1.08;;;;;;;;;;5021123;28;20052;-64
2023/01/06 11:47:08;;;;;;;5.60;0.95;;;;;;;;;;5031389;28;20061;-64
2023/01/06 11:49:36;;;;;;;2.38;0.90;;;;;;;;;;5033046;28;20056;-64
2023/01/06 11:52:08;;;;;;;7.47;1.25;;;;;;;;;;5020023;28;20466;-64
2023/01/06 11:54:38;;;;;;;2.72;0.90;;;;;;;;;;5030828;28;20025;-64
2023/01/06 11:57:43;;;;;;;3.65;1.70;;;;;;;;;;5032471;28;20367;-64
2023/01/06 12:00:27;;;;;;;5.13;1.20;;;;;;;;;;5048666;28;20025;-64
2023/01/06 12:03:13;;;;;;;4.90;1.42;;;;;;;;;;5049025;28;20116;-64
2023/01/06 12:05:54;;;;;;;6.35;1.70;;;;;;;;;;5049063;28;20489;-64
2023/01/06 12:08:24;;;;;;;3.65;1.55;;;;;;;;;;5046911;28;20065;-64
2023/01/06 12:10:53;;;;;;;5.90;1.58;;;;;;;;;;5049347;28;20041;-64
2023/01/06 12:13:20;;;;;;;7.47;1.80;;;;;;;;;;5049767;28;20025;-64
2023/01/06 12:15:51;;;;;;;5.22;1.40;;;;;;;;;;5048987;28;20183;-64
2023/01/06 12:18:20;;;;;;;4.88;1.30;;;;;;;;;;5046480;28;20033;-64
2023/01/06 12:20:49;;;;;;;6.70;1.25;;;;;;;;;;5049015;28;20033;-64
2023/01/06 12:23:16;;;;;;;6.50;1.02;;;;;;;;;;5047183;28;20120;-64
2023/01/06 12:25:46;;;;;;;4.55;1.30;;;;;;;;;;5048923;28;20461;-64
2023/01/06 12:28:15;;;;;;;10.23;1.40;;;;;;;;;;5049816;28;20457;-64
2023/01/06 12:31:02;;;;;;;8.50;1.55;;;;;;;;;;5040437;28;20413;-64
2023/01/06 12:33:37;;;;;;;10.05;1.15;;;;;;;;;;5032275;28;20445;-64
2023/01/06 12:36:19;;;;;;;1.98;0.90;;;;;;;;;;5029407;28;20025;-64
2023/01/06 12:38:49;;;;;;;2.78;0.90;;;;;;;;;;5032024;28;20080;-64
2023/01/06 12:41:15;;;;;;;3.70;1.17;;;;;;;;;;5025676;28;20033;-64
2023/01/06 12:43:45;;;;;;;1.55;0.88;;;;;;;;;;5030558;28;20025;-64
2023/01/06 12:46:20;;;;;;;4.60;1.00;;;;;;;;;;5031716;28;20026;-64
2023/01/06 12:48:46;;;;;;;6.65;1.33;;;;;;;;;;5028733;28;20034;-63
2023/01/06 12:51:26;;;;;;;3.22;1.25;;;;;;;;;;5030014;28;20021;-64
2023/01/06 12:54:12;;;;;;;2.22;0.65;;;;;;;;;;5025452;28;20412;-64
2023/01/06 12:57:11;;;;;;;8.40;0.80;;;;;;;;;;5023412;28;20504;-64
2023/01/06 12:59:45;;;;;;;5.55;0.95;;;;;;;;;;5035977;28;20055;-64
2023/01/06 13:02:29;;;;;;;3.97;1.10;;;;;;;;;;5023946;28;20025;-64
2023/01/06 13:04:55;;;;;;;2.78;1.10;;;;;;;;;;5022211;28;20053;-64
2023/01/06 13:07:39;;;;;;;3.10;0.82;;;;;;;;;;5028542;28;20072;-63
2023/01/06 13:10:11;;;;;;;2.70;0.98;;;;;;;;;;5031941;28;20111;-64
2023/01/06 13:12:43;;;;;;;2.38;0.82;;;;;;;;;;5032696;28;20129;-64
2023/01/06 13:15:27;;;;;;;6.10;0.75;;;;;;;;;;5018988;28;20083;-64
2023/01/06 13:18:11;;;;;;;7.95;1.58;;;;;;;;;;5031493;28;20033;-63
2023/01/06 13:20:37;;;;;;;6.80;2.00;;;;;;;;;;5038314;28;20048;-64
2023/01/06 13:23:09;;;;;;;4.88;0.95;;;;;;;;;;5037138;28;20452;-64
2023/01/06 13:25:54;;;;;;;8.32;2.50;;;;;;;;;;5035802;28;20025;-64
2023/01/06 13:28:45;;;;;;;6.55;1.92;;;;;;;;;;5025418;28;20025;-64
2023/01/06 13:31:31;;;;;;;8.30;1.10;;;;;;;;;;5032150;28;20485;-64
2023/01/06 13:34:13;;;;;;;5.30;1.38;;;;;;;;;;5033713;28;20065;-64
2023/01/06 13:36:45;;;;;;;4.03;1.30;;;;;;;;;;5029593;28;20029;-64
2023/01/06 13:39:14;;;;;;;6.65;1.33;;;;;;;;;;5031895;28;20032;-64
2023/01/06 13:41:43;;;;;;;6.15;1.45;;;;;;;;;;5031485;28;20132;-64
2023/01/06 13:44:14;;;;;;;10.95;1.65;;;;;;;;;;5032912;28;20029;-64
2023/01/06 13:46:41;;;;;;;7.82;1.33;;;;;;;;;;5030770;28;20139;-64
2023/01/06 13:49:07;;;;;;;8.38;1.73;;;;;;;;;;5031058;28;20025;-64
2023/01/06 13:51:34;;;;;;;6.85;2.50;;;;;;;;;;5030834;28;20037;-64
2023/01/06 13:54:01;;;;;;;7.75;2.00;;;;;;;;;;5036488;28;20026;-63
2023/01/06 13:56:37;;;;;;;6.00;1.55;;;;;;;;;;5035173;28;20508;-64
2023/01/06 13:59:23;;;;;;;10.00;2.13;;;;;;;;;;5034570;28;20025;-64
2023/01/06 14:01:49;;;;;;;4.70;1.65;;;;;;;;;;5034922;28;20041;-64
2023/01/06 14:04:41;;;;;;;9.05;2.25;;;;;;;;;;5035532;28;20018;-64
2023/01/06 14:07:08;;;;;;;6.53;1.40;;;;;;;;;;5035282;28;20033;-64
2023/01/06 14:09:37;;;;;;;8.05;2.25;;;;;;;;;;5035171;28;20021;-63
2023/01/06 14:12:08;;;;;;;10.07;2.50;;;;;;;;;;5035760;28;20025;-64
2023/01/06 14:14:37;;;;;;;6.30;1.70;;;;;;;;;;5035473;28;20049;-64
2023/01/06 14:17:03;;;;;;;10.35;2.45;;;;;;;;;;5034940;28;20377;-64
2023/01/06 14:19:31;;;;;;;13.13;2.70;;;;;;;;;;5034898;28;20056;-64
2023/01/06 14:22:14;;;;;;;7.47;1.83;;;;;;;;;;5035771;28;20037;-64
2023/01/06 14:24:48;;;;;;;10.63;2.30;;;;;;;;;;5035331;28;20048;-64
2023/01/06 14:27:14;;;;;;;9.45;2.53;;;;;;;;;;5035539;28;20041;-64
2023/01/06 14:29:43;;;;;;;10.23;1.88;;;;;;;;;;5035361;28;20462;-64
2023/01/06 14:32:11;;;;;;;11.20;2.25;;;;;;;;;;5035346;28;20026;-64
2023/01/06 14:34:57;;;;;;;9.75;1.90;;;;;;;;;;5023854;28;20520;-64
2023/01/06 14:37:25;;;;;;;6.63;1.60;;;;;;;;;;5025847;28;20060;-64
2023/01/06 14:39:54;;;;;;;7.10;1.60;;;;;;;;;;5035299;28;20064;-64
2023/01/06 14:42:23;;;;;;;4.20;1.35;;;;;;;;;;5035580;28;20065;-64
2023/01/06 14:44:51;;;;;;;6.72;1.98;;;;;;;;;;5031016;28;20064;-64
2023/01/06 14:47:22;;;;;;;10.15;2.03;;;;;;;;;;5029992;28;20032;-64
2023/01/06 14:49:54;;;;;;;11.55;1.52;;;;;;;;;;5034824;28;20037;-64
2023/01/06 14:52:24;;;;;;;7.55;1.52;;;;;;;;;;5034941;28;20029;-63
2023/01/06 14:54:51;;;;;;;11.23;2.05;;;;;;;;;;5033448;28;20128;-63